Limbourg, Belgium
Current Conditions -  °F | °C
As of 5:40 PM on Tuesday 21 Oct 2014 (Local Time) from EBLB Reporting Station
Broken Clouds Broken Clouds  
Wind Chill: 37°   Ceiling: 2600
Heat Index: 45°   Visibility: 1.6mi
Dew Point: 43°   Wind: 18mph
Humidity: 93%   Direction: 290°WNW
Pressure: 29.62"   Gusts: NA
Location:  50.61°N, 5.94°E
Report Text: EBLB 211540Z AUTO 29016KT 2600 FEW009/// SCT019/// BKN026/// 07/06 Q1003 YLO
Loading
Personal Weather Stations






























Interactive Weather Map
Tropical Storm Tracking
New forecast layout! Learn more

10-Day Weather Forecast

Advertisements
Track Severe Weather on mobile